Latest Weather Observations for Scone Airport

IDN60801

Issued at 6:32 am EST Saturday 22 July 2017 (issued every 30 minutes, with the page automatically refreshed every 10 minutes)

About weather observations | Map of weather stations | Latest weather observations for NSW | Other Formats
Station Details ID: 061363 Name: SCONE AIRPORT AWS Lat: -32.03 Lon: 150.83 Height: 221.4 m
Data from the previous 72 hours. | See also: Recent months at Scone Airport
Date/Time
EST
Temp
°C
App
Temp
°C
Dew
Point
°C
Rel
Hum
%
Delta-T
°C
Wind Press
QNH
hPa
Press
MSL
hPa
Rain since
9am
mm
Dir  Spd
km/h
Gust
km/h
Spd
kts
Gust
kts
22/06:30am -3.1 -5.5 -3.2 99 -0.1 CALM 0 0 0 0 1024.3 1024.6 0.0
22/06:00am -2.7 -5.1 -2.8 99 -0.1 CALM 0 0 0 0 1023.7 1024.0 0.0
22/05:30am -2.0 -4.3 -2.1 99 -0.1 CALM 0 0 0 0 1023.6 1023.9 0.0
22/05:00am -1.6 -5.0 -1.7 99 0.0 W 6 7 3 4 1023.3 1023.6 0.0
22/04:30am -2.8 -5.9 -2.9 99 -0.1 W 4 9 2 5 1023.1 1023.3 0.0
22/04:00am -1.6 -3.8 -1.7 99 0.0 CALM 0 0 0 0 1022.9 1023.1 0.0
22/03:30am -1.9 -4.2 -2.0 99 -0.1 CALM 0 0 0 0 1023.0 1023.2 0.0
22/03:00am -1.5 -4.8 -1.6 99 0.0 W 6 7 3 4 1023.1 1023.3 0.0
22/02:30am -1.2 -3.4 -1.3 99 0.0 CALM 0 0 0 0 1023.1 1023.3 0.0
22/02:00am -1.8 -4.1 -2.1 98 0.0 CALM 0 0 0 0 1023.0 1023.2 0.0
22/01:30am -1.8 -4.4 -1.9 99 0.0 WNW 2 7 1 4 1023.4 1023.7 0.0
22/01:00am -0.3 -2.3 -0.4 99 0.0 CALM 0 0 0 0 1023.6 1023.9 0.0
22/12:30am -0.4 -2.5 -0.5 99 0.0 CALM 0 0 0 0 1023.3 1023.6 0.0
22/12:00am -0.2 -2.2 -0.3 99 0.0 CALM 0 0 0 0 1023.2 1023.4 0.0
 
Date/Time
EST
Temp
°C
App
Temp
°C
Dew
Point
°C
Rel
Hum
%
Delta-T
°C
Wind Press
QNH
hPa
Press
MSL
hPa
Rain since
9am
mm
Dir  Spd
km/h
Gust
km/h
Spd
kts
Gust
kts
21/11:30pm 0.3 -1.7 0.0 98 0.1 CALM 0 0 0 0 1023.3 1023.6 0.0
21/11:00pm 0.7 -1.3 0.1 96 0.2 CALM 0 0 0 0 1023.4 1023.7 0.0
21/10:30pm 1.3 -0.6 0.4 94 0.3 CALM 0 0 0 0 1023.5 1023.8 0.0
21/10:00pm 2.1 -0.5 0.9 92 0.5 NW 4 7 2 4 1023.5 1023.8 0.0
21/09:30pm 3.4 0.5 2.5 94 0.4 SSE 7 9 4 5 1023.2 1023.4 0.0
21/09:00pm 3.1 1.4 1.9 92 0.5 CALM 0 0 0 0 1022.9 1023.1 0.0
21/08:30pm 3.7 2.1 2.2 90 0.6 CALM 0 0 0 0 1022.6 1022.8 0.0
21/08:00pm 4.0 2.4 2.2 88 0.7 CALM 0 0 0 0 1022.6 1022.8 0.0
21/07:30pm 4.5 1.1 2.0 84 1.0 WNW 9 13 5 7 1022.4 1022.6 0.0
21/07:00pm 4.7 1.3 1.6 80 1.2 WNW 9 13 5 7 1022.0 1022.2 0.0
21/06:30pm 6.5 4.5 2.4 75 1.7 N 2 6 1 3 1021.9 1022.1 0.0
21/06:00pm 6.6 4.0 1.1 68 2.2 W 4 9 2 5 1021.7 1021.9 0.0
21/05:30pm 9.8 7.8 2.4 60 3.2 SSE 2 7 1 4 1021.4 1021.6 0.0
21/05:00pm 12.1 9.8 2.6 52 4.2 SE 4 6 2 3 1020.8 1021.1 0.0
21/04:30pm 13.8 10.9 2.7 47 5.0 SE 7 11 4 6 1020.5 1020.8 0.0
21/04:00pm 14.3 11.0 2.5 45 5.3 ESE 9 13 5 7 1020.3 1020.6 0.0
21/03:30pm 14.7 12.0 2.6 44 5.5 SE 6 13 3 7 1020.2 1020.5 0.0
21/03:00pm 15.0 11.3 2.5 43 5.6 ESE 11 17 6 9 1020.1 1020.4 0.0
21/02:30pm 14.9 12.0 2.4 43 5.6 SSW 7 15 4 8 1020.0 1020.3 0.0
21/02:00pm 14.7 10.7 2.6 44 5.4 SE 13 19 7 10 1020.1 1020.4 0.0
21/01:30pm 14.1 10.0 2.4 45 5.2 SE 13 22 7 12 1020.2 1020.5 0.0
21/01:00pm 14.2 9.8 2.8 46 5.1 SSE 15 22 8 12 1020.3 1020.6 0.0
21/12:30pm 13.3 8.4 2.2 47 4.9 SSE 17 20 9 11 1020.8 1021.1 0.0
21/12:00pm 12.8 8.2 1.8 47 4.8 S 15 19 8 10 1021.0 1021.3 0.0
21/11:30am 12.2 8.6 0.9 46 4.8 SSE 9 15 5 8 1021.4 1021.6 0.0
21/11:00am 11.9 8.4 1.0 47 4.6 S 9 15 5 8 1021.7 1021.9 0.0
21/10:30am 11.8 9.1 0.6 46 4.7 ESE 4 9 2 5 1022.1 1022.3 0.0
21/10:00am 10.8 8.5 0.5 49 4.3 NW 2 7 1 4 1022.1 1022.3 0.0
21/09:30am 10.4 8.0 2.3 57 3.5 N 4 9 2 5 1021.9 1022.1 0.0
21/09:00am 8.7 5.9 2.1 63 2.8 NE 6 9 3 5 1022.0 1022.2 0.0
21/08:30am 6.1 3.2 1.6 73 1.8 NE 6 7 3 4 1021.7 1021.9 0.0
21/08:00am 3.7 1.1 1.1 83 1.0 N 4 7 2 4 1021.4 1021.6 0.0
21/07:30am 0.1 -2.4 -1.0 92 0.4 NE 2 6 1 3 1020.9 1021.2 0.0
21/07:00am -0.6 -2.8 -1.9 91 0.4 CALM 0 6 0 3 1020.5 1020.8 0.0
21/06:30am -0.5 -3.9 -2.1 89 0.5 NNE 6 7 3 4 1020.1 1020.4 0.0
21/06:00am -0.4 -2.8 -2.9 83 0.8 CALM 0 0 0 0 1019.7 1020.0 0.0
21/05:30am 0.6 -2.1 -2.4 80 1.1 NE 2 7 1 4 1019.2 1019.4 0.0
21/05:00am 3.2 0.4 -0.1 79 1.2 ENE 4 7 2 4 1019.0 1019.2 0.0
21/04:30am 2.8 -0.7 -1.2 75 1.5 ENE 7 11 4 6 1018.4 1018.6 0.0
21/04:00am 2.4 -1.5 -1.7 74 1.5 NE 9 13 5 7 1018.3 1018.5 0.0
21/03:58am 2.4 -1.6 -2.1 72 1.6 NNE 9 13 5 7 1018.2 1018.4 0.0
21/03:30am 7.4 3.7 -0.1 59 3.0 NW 9 15 5 8 1018.2 1018.4 0.0
21/03:00am 4.8 2.0 -0.4 69 2.0 NE 4 11 2 6 1018.3 1018.5 0.0
21/02:30am 7.0 2.6 0.2 62 2.7 NW 13 17 7 9 1018.2 1018.4 0.0
21/02:00am 7.5 3.5 0.3 60 2.9 NNW 11 17 6 9 1018.3 1018.5 0.0
21/01:30am 7.5 3.8 0.0 59 3.0 NNW 9 11 5 6 1018.4 1018.6 0.0
21/01:00am 8.1 4.1 0.6 59 3.0 N 11 17 6 9 1018.3 1018.5 0.0
21/12:30am 7.5 3.9 0.5 61 2.8 NNE 9 13 5 7 1018.3 1018.5 0.0
21/12:00am 5.8 2.4 -0.5 64 2.4 NE 7 11 4 6 1018.4 1018.6 0.0
 
Date/Time
EST
Temp
°C
App
Temp
°C
Dew
Point
°C
Rel
Hum
%
Delta-T
°C
Wind Press
QNH
hPa
Press
MSL
hPa
Rain since
9am
mm
Dir  Spd
km/h
Gust
km/h
Spd
kts
Gust
kts
20/11:30pm 6.1 3.2 -1.3 59 2.8 N 4 9 2 5 1018.5 1018.7 0.0
20/11:00pm 7.2 3.4 -0.5 58 3.0 NW 9 17 5 9 1018.4 1018.6 0.0
20/10:30pm 7.5 2.4 0.5 61 2.8 WNW 17 24 9 13 1018.5 1018.7 0.0
20/10:00pm 6.6 1.8 -0.1 62 2.6 W 15 22 8 12 1018.4 1018.6 0.0
20/09:30pm 8.0 3.5 0.0 57 3.2 WNW 13 19 7 10 1018.3 1018.5 0.0
20/09:00pm 8.7 3.0 0.7 57 3.3 WNW 20 28 11 15 1017.7 1017.9 0.0
20/08:30pm 9.2 4.0 0.1 53 3.7 W 17 26 9 14 1018.1 1018.3 0.0
20/08:00pm 9.2 3.9 -0.4 51 3.8 WNW 17 22 9 12 1017.9 1018.1 0.0
20/07:30pm 10.2 4.9 -0.6 47 4.3 WNW 17 22 9 12 1017.5 1017.7 0.0
20/07:00pm 10.7 5.3 -1.0 44 4.7 WNW 17 22 9 12 1016.7 1016.9 0.0
20/06:30pm 11.0 4.9 -2.1 40 5.1 WNW 20 41 11 22 1016.1 1016.4 0.0
20/06:00pm 11.9 6.8 -1.9 38 5.5 W 15 24 8 13 1015.4 1015.6 0.0
20/05:30pm 11.7 6.5 -2.9 36 5.7 WNW 15 22 8 12 1014.9 1015.1 0.0
20/05:00pm 13.2 7.6 -3.1 32 6.4 WNW 17 30 9 16 1014.6 1014.8 0.0
20/04:30pm 14.1 7.9 -3.2 30 6.8 WNW 20 35 11 19 1014.5 1014.7 0.0
20/04:00pm 14.8 7.4 -3.5 28 7.2 W 26 35 14 19 1014.3 1014.5 0.0
20/03:42pm 14.9 6.3 -3.9 27 7.4 WNW 32 56 17 30 1014.1 1014.3 0.0
20/03:30pm 15.3 7.6 -3.1 28 7.4 W 28 43 15 23 1014.2 1014.4 0.0
20/03:00pm 15.5 7.5 -2.4 29 7.3 W 30 44 16 24 1014.3 1014.5 0.0
20/02:30pm 16.1 8.5 -1.9 29 7.5 W 28 37 15 20 1014.4 1014.6 0.0
20/02:19pm 16.1 9.2 -2.9 27 7.7 W 24 48 13 26 1014.5 1014.7 0.0
20/02:00pm 16.4 10.7 -3.7 25 8.0 W 17 28 9 15 1014.6 1014.8 0.0
20/01:30pm 16.4 10.5 -2.1 28 7.7 W 19 30 10 16 1014.6 1014.8 0.0
20/01:00pm 15.9 9.1 -2.1 29 7.4 WNW 24 41 13 22 1014.7 1014.9 0.0
20/12:46pm 15.5 8.0 -1.1 32 7.0 WNW 28 46 15 25 1014.8 1015.0 0.0
20/12:30pm 15.9 10.6 -0.3 33 6.9 WNW 17 30 9 16 1015.0 1015.2 0.0
20/12:00pm 16.0 9.2 0.6 35 6.7 W 26 39 14 21 1015.3 1015.5 0.0
20/11:30am 15.0 8.4 -0.3 35 6.5 WNW 24 37 13 20 1015.9 1016.2 0.0
20/11:00am 14.6 8.9 0.8 39 6.0 W 20 30 11 16 1016.7 1016.9 0.0
20/10:30am 13.5 7.6 1.5 44 5.2 W 22 33 12 18 1016.9 1017.1 0.0
20/10:00am 13.1 7.6 2.1 47 4.8 WNW 20 32 11 17 1017.3 1017.5 0.0
20/09:30am 12.6 7.4 3.3 53 4.2 WNW 20 30 11 16 1017.2 1017.4 0.0
20/09:00am 11.3 5.2 2.9 56 3.7 WNW 24 32 13 17 1016.9 1017.1 0.0
20/08:30am 10.0 4.0 3.5 64 2.9 WNW 24 35 13 19 1017.0 1017.2 0.0
20/08:00am 10.0 4.8 3.3 63 2.9 WNW 20 32 11 17 1016.7 1016.9 0.0
20/07:30am 9.1 4.3 2.4 63 2.9 WNW 17 20 9 11 1016.7 1016.9 0.0
20/07:00am 9.3 4.0 2.9 64 2.8 W 20 28 11 15 1016.3 1016.6 0.0
20/06:30am 9.1 4.0 3.1 66 2.6 WNW 19 28 10 15 1016.1 1016.4 0.0
20/06:00am 10.3 3.6 3.6 63 3.0 WNW 28 39 15 21 1015.8 1016.1 0.0
20/05:30am 10.3 3.5 5.1 70 2.4 WNW 30 43 16 23 1015.4 1015.6 0.0
20/05:26am 10.2 3.8 5.2 71 2.3 WNW 28 39 15 21 1015.2 1015.4 0.0
20/05:00am 9.6 5.5 4.4 70 2.3 WNW 15 19 8 10 1015.0 1015.2 0.0
20/04:30am 9.7 7.5 5.1 73 2.1 NW 6 15 3 8 1014.8 1015.0 0.0
20/04:00am 10.1 6.6 5.5 73 2.1 NNW 13 20 7 11 1014.6 1014.8 0.0
20/03:30am 10.4 7.7 5.6 72 2.2 NNW 9 15 5 8 1014.7 1014.9 0.0
20/03:00am 10.2 6.7 5.6 73 2.1 NNW 13 20 7 11 1014.2 1014.4 0.0
20/02:30am 10.3 7.6 5.5 72 2.2 NNE 9 17 5 9 1014.2 1014.4 0.0
20/02:00am 10.3 6.9 5.7 73 2.1 NW 13 22 7 12 1014.2 1014.4 0.0
20/01:30am 10.6 6.6 4.9 68 2.6 NNW 15 20 8 11 1013.9 1014.1 0.0
20/01:00am 11.0 7.5 5.3 68 2.6 N 13 20 7 11 1013.6 1013.8 0.0
20/12:30am 10.2 7.0 5.2 71 2.3 N 11 20 6 11 1013.9 1014.1 0.0
20/12:00am 10.6 7.0 4.9 68 2.6 N 13 20 7 11 1014.2 1014.4 0.0
 
Date/Time
EST
Temp
°C
App
Temp
°C
Dew
Point
°C
Rel
Hum
%
Delta-T
°C
Wind Press
QNH
hPa
Press
MSL
hPa
Rain since
9am
mm
Dir  Spd
km/h
Gust
km/h
Spd
kts
Gust
kts
19/11:30pm 10.6 6.6 4.7 67 2.7 N 15 26 8 14 1014.1 1014.3 0.0
19/11:00pm 9.8 6.5 4.8 71 2.3 N 11 17 6 9 1014.5 1014.7 0.0
19/10:30pm 10.1 6.9 5.1 71 2.3 NNW 11 19 6 10 1014.6 1014.8 0.0
19/10:00pm 10.1 6.9 5.3 72 2.2 NNW 11 20 6 11 1014.7 1014.9 0.0
19/09:30pm 10.1 5.9 5.5 73 2.1 WNW 17 24 9 13 1014.6 1014.8 0.0
19/09:00pm 10.5 6.5 5.1 69 2.5 NW 15 20 8 11 1014.7 1014.9 0.0
19/08:30pm 11.1 7.5 5.2 67 2.7 WNW 13 20 7 11 1014.7 1014.9 0.0
19/08:00pm 11.4 7.0 4.8 64 3.0 WNW 17 28 9 15 1014.5 1014.7 0.0
19/07:30pm 11.1 7.1 5.0 66 2.8 WNW 15 28 8 15 1014.1 1014.3 0.0
19/07:00pm 11.3 7.6 4.7 64 3.0 NW 13 17 7 9 1013.5 1013.7 0.0
19/06:30pm 11.4 7.3 4.2 61 3.3 NW 15 20 8 11 1013.0 1013.2 0.0
19/06:00pm 11.3 7.1 3.8 60 3.4 WNW 15 20 8 11 1012.6 1012.8 0.0
19/05:30pm 11.2 8.1 3.7 60 3.4 WNW 9 17 5 9 1012.1 1012.3 0.0
19/05:00pm 11.4 6.3 3.9 60 3.4 W 20 37 11 20 1011.4 1011.6 0.0
19/04:30pm 12.1 6.0 4.8 61 3.4 W 26 43 14 23 1010.6 1010.8 0.0
19/04:00pm 11.8 6.2 5.2 64 3.1 WNW 24 44 13 24 1010.1 1010.3 0.0
19/03:30pm 13.3 6.9 3.4 51 4.5 WNW 26 41 14 22 1009.6 1009.8 0.0
19/03:00pm 15.2 10.2 3.4 45 5.4 WNW 19 28 10 15 1009.3 1009.5 0.0
19/02:36pm 13.7 6.9 2.9 48 4.9 WNW 28 46 15 25 1009.2 1009.4 0.0
19/02:30pm 14.5 6.8 3.3 47 5.1 WNW 33 46 18 25 1009.1 1009.3 0.0
19/02:24pm 13.9 6.9 2.2 45 5.2 W 28 46 15 25 1009.1 1009.3 0.0
19/02:00pm 13.9 7.8 2.5 46 5.1 W 24 39 13 21 1009.1 1009.3 0.0
19/01:30pm 13.6 6.0 3.1 49 4.7 W 32 41 17 22 1009.3 1009.5 0.0
19/01:18pm 13.3 6.7 2.2 47 4.9 WNW 26 46 14 25 1009.3 1009.5 0.0
19/01:00pm 13.6 6.4 2.8 48 4.9 WNW 30 44 16 24 1009.6 1009.8 0.0
19/12:30pm 12.3 5.8 2.5 51 4.3 WNW 26 39 14 21 1010.2 1010.4 0.0
19/12:00pm 11.7 6.4 3.2 56 3.8 WNW 20 41 11 22 1010.7 1010.9 0.0
19/11:30am 11.2 6.2 3.7 60 3.4 NW 19 28 10 15 1011.1 1011.3 0.0
19/11:00am 12.0 6.4 5.2 63 3.2 WNW 24 33 13 18 1011.4 1011.6 0.0
19/10:30am 11.5 6.3 3.3 57 3.7 WNW 20 32 11 17 1011.5 1011.7 0.0
19/10:00am 11.1 5.9 3.6 60 3.4 W 20 30 11 16 1011.7 1011.9 0.0
19/09:30am 10.6 4.5 2.9 59 3.4 WNW 24 43 13 23 1011.5 1011.7 0.0
19/09:00am 10.9 5.7 2.2 55 3.8 W 19 24 10 13 1011.3 1011.5 0.6
19/08:30am 11.0 6.9 2.1 54 3.8 NW 13 19 7 10 1011.0 1011.2 0.6
19/08:00am 11.0 6.0 1.5 52 4.0 WNW 17 22 9 12 1010.9 1011.1 0.6
19/07:30am 11.0 5.4 1.5 52 4.0 WNW 20 35 11 19 1010.5 1010.7 0.6
19/07:00am 10.3 6.4 1.2 53 3.8 NW 11 22 6 12 1010.2 1010.4 0.6

Other Formats:

Comma delimited format used in spreadsheet applications
http://www.bom.gov.au/fwo/IDN60801/IDN60801.95758.axf

JavaScript Object Notation format (JSON) in row-major order
http://www.bom.gov.au/fwo/IDN60801/IDN60801.95758.json